Terminal Aerodrome Forecast
Issued by NWS

Home | Current Version | Previous Version | Text Only | Print | Product List | Glossary On
Versions: 1 2 3 4 5 6 7 8 9 10 11 12 13 14 15 16 17 18
000
FTUS43 KMQT 040520
TAFCMX
TAF
KCMX 040520Z 0406/0506 VRB03KT P6SM OVC040
     FM041300 17007KT P6SM OVC040
     FM041900 16008KT 5SM -SN OVC020
     FM042100 15009KT 1 1/2SM -SN OVC010
     FM042300 16008KT 3SM -SN OVC010
     FM050300 19007KT P6SM OVC015=

USA.gov is the U.S. government's official web portal to all federal, state and local government web resources and services.